createdAt,value
2019-06-20T00:04:47.824Z,1.30
2019-06-20T00:09:43.611Z,1.07
2019-06-20T00:14:39.387Z,1.20
2019-06-20T00:19:35.232Z,1.02
2019-06-20T00:24:31.158Z,1.40
2019-06-20T00:29:27.265Z,1.30
2019-06-20T00:34:23.012Z,1.42
2019-06-20T00:39:18.805Z,1.50
2019-06-20T00:44:14.513Z,1.20
2019-06-20T00:49:10.285Z,1.50
2019-06-20T00:54:06.273Z,1.20
2019-06-20T00:59:02.340Z,1.02
2019-06-20T01:03:58.214Z,1.50
2019-06-20T01:08:54.068Z,1.00
2019-06-20T01:13:52.730Z,1.20
2019-06-20T01:18:47.372Z,1.30
2019-06-20T01:23:43.131Z,1.12
2019-06-20T01:28:38.858Z,1.40
2019-06-20T01:33:34.706Z,1.30
2019-06-20T01:38:30.598Z,1.30
2019-06-20T01:43:26.364Z,1.07
2019-06-20T01:48:22.248Z,1.15
2019-06-20T01:53:19.304Z,1.35
2019-06-20T01:58:15.056Z,1.27
2019-06-20T02:03:10.774Z,1.40
2019-06-20T02:08:07.685Z,1.30
2019-06-20T02:13:03.682Z,1.10
2019-06-20T02:17:59.542Z,1.30
2019-06-20T02:22:55.353Z,1.27
2019-06-20T02:27:51.223Z,1.30
2019-06-20T02:32:47.152Z,1.30
2019-06-20T02:37:43.158Z,1.32
2019-06-20T02:42:38.880Z,1.27
2019-06-20T02:47:34.653Z,1.47
2019-06-20T02:52:30.758Z,1.35
2019-06-20T02:57:26.601Z,1.17
2019-06-20T03:02:22.366Z,1.50
2019-06-20T03:07:18.142Z,1.45
2019-06-20T03:12:13.969Z,1.20
2019-06-20T03:17:09.761Z,1.45
2019-06-20T03:22:05.493Z,1.47
2019-06-20T03:27:01.248Z,1.40
2019-06-20T03:31:57.053Z,1.40
2019-06-20T03:36:52.880Z,1.30
2019-06-20T03:41:48.679Z,1.60
2019-06-20T03:46:44.513Z,1.20
2019-06-20T03:51:40.315Z,1.60
2019-06-20T03:56:36.124Z,1.50
2019-06-20T04:01:32.464Z,1.30
2019-06-20T04:06:28.224Z,1.60
2019-06-20T04:11:23.980Z,1.67
2019-06-20T04:16:20.750Z,1.40
2019-06-20T04:21:16.649Z,1.60
2019-06-20T04:26:12.480Z,1.60
2019-06-20T04:31:08.207Z,1.60
2019-06-20T04:36:04.011Z,1.60
2019-06-20T04:41:00.106Z,1.50
2019-06-20T04:46:04.433Z,1.80
2019-06-20T04:51:00.149Z,1.57
2019-06-20T04:55:55.920Z,2.13
2019-06-20T05:00:51.852Z,2.00
2019-06-20T05:05:47.824Z,2.10
2019-06-20T05:10:43.923Z,2.10
2019-06-20T05:15:51.952Z,1.53
2019-06-20T05:20:38.756Z,1.50
2019-06-20T05:25:34.963Z,1.90
2019-06-20T05:30:31.529Z,1.90
2019-06-20T05:35:27.317Z,1.30
2019-06-20T05:40:23.253Z,1.50
2019-06-20T05:45:19.473Z,1.65
2019-06-20T05:50:16.634Z,1.70
2019-06-20T05:55:12.672Z,1.40
2019-06-20T06:00:15.489Z,1.20
2019-06-20T06:05:11.407Z,1.50
2019-06-20T06:10:08.849Z,1.40
2019-06-20T06:15:04.777Z,1.52
2019-06-20T06:20:00.566Z,1.20
2019-06-20T06:24:56.662Z,1.70
2019-06-20T06:29:53.439Z,1.40
2019-06-20T06:34:50.641Z,1.27
2019-06-20T06:39:46.943Z,1.05
2019-06-20T06:44:43.206Z,1.02
2019-06-20T06:49:38.956Z,1.27
2019-06-20T06:54:34.917Z,1.10
2019-06-20T06:59:30.780Z,1.10
2019-06-20T07:04:26.560Z,1.20
2019-06-20T07:09:22.425Z,1.10
2019-06-20T07:14:18.234Z,1.40
2019-06-20T07:19:14.115Z,1.37
2019-06-20T07:24:09.885Z,1.67
2019-06-20T07:34:07.961Z,1.50
2019-06-20T07:39:15.416Z,1.60
2019-06-20T07:44:27.636Z,0.85
2019-06-20T07:49:23.487Z,0.70
2019-06-20T07:54:21.665Z,0.90
2019-06-20T07:59:21.786Z,0.75
2019-06-20T08:04:20.852Z,0.82
2019-06-20T08:09:17.212Z,0.88
2019-06-20T08:14:28.484Z,0.90
2019-06-20T08:19:24.374Z,0.68
2019-06-20T08:24:20.327Z,0.80
2019-06-20T08:29:21.130Z,0.57
2019-06-20T08:34:14.100Z,0.93
2019-06-20T08:45:39.259Z,0.88
2019-06-20T08:50:46.575Z,0.70
2019-06-20T08:56:10.710Z,0.80
2019-06-20T09:06:32.912Z,0.70
2019-06-20T09:11:28.784Z,0.88
2019-06-20T09:16:24.890Z,0.90
2019-06-20T09:40:39.847Z,0.93
2019-06-20T09:45:44.886Z,0.70
2019-06-20T09:50:54.503Z,0.90
2019-06-20T09:55:54.188Z,0.90
2019-06-20T10:00:55.025Z,0.88
2019-06-20T10:05:56.694Z,1.00
2019-06-20T10:10:56.724Z,0.90
2019-06-20T10:15:53.653Z,0.90
2019-06-20T10:21:11.352Z,1.25
2019-06-20T10:26:31.678Z,1.00
2019-06-20T10:31:32.127Z,0.68
2019-06-20T10:36:44.820Z,0.72
2019-06-20T10:41:40.234Z,1.10
2019-06-20T10:46:58.594Z,0.85
2019-06-20T10:51:59.393Z,0.75
2019-06-20T10:56:57.478Z,1.00
2019-06-20T11:02:02.127Z,0.90
2019-06-20T11:07:01.440Z,0.82
2019-06-20T11:11:57.268Z,1.22
2019-06-20T11:16:53.309Z,1.10
2019-06-20T11:21:59.776Z,1.20
2019-06-20T11:26:53.720Z,1.10
2019-06-20T11:31:50.591Z,1.15
2019-06-20T11:37:06.907Z,1.30
2019-06-20T11:42:12.669Z,1.40
2019-06-20T11:47:13.436Z,1.30
2019-06-20T11:52:14.333Z,1.27
2019-06-20T11:58:34.181Z,1.52
2019-06-20T12:10:25.021Z,1.33
2019-06-20T12:15:22.678Z,1.42
2019-06-20T12:20:20.788Z,1.30
2019-06-20T12:25:19.602Z,1.60
2019-06-20T12:30:18.152Z,1.12
2019-06-20T12:35:15.244Z,1.80
2019-06-20T12:40:12.090Z,1.60
2019-06-20T12:45:08.371Z,1.52
2019-06-20T12:50:04.453Z,1.40
2019-06-20T12:55:00.548Z,1.40
2019-06-20T13:00:01.667Z,1.77
2019-06-20T13:04:57.436Z,1.98
2019-06-20T13:09:53.254Z,1.70
2019-06-20T13:14:49.606Z,1.75
2019-06-20T13:19:46.509Z,1.80
2019-06-20T13:24:42.760Z,2.00
2019-06-20T13:29:39.163Z,1.72
2019-06-20T13:34:35.434Z,1.72
2019-06-20T13:39:31.420Z,2.05
2019-06-20T13:44:27.324Z,1.82
2019-06-20T13:49:24.537Z,2.02
2019-06-20T13:54:21.678Z,2.37
2019-06-20T13:59:22.809Z,1.98
2019-06-20T14:04:18.771Z,2.25
2019-06-20T14:09:16.846Z,2.08
2019-06-20T14:14:13.924Z,2.08
2019-06-20T14:19:09.988Z,2.50
2019-06-20T14:24:06.532Z,2.25
2019-06-20T14:29:02.630Z,2.33
2019-06-20T14:34:00.351Z,2.40
2019-06-20T14:38:57.977Z,2.42
2019-06-20T14:43:58.346Z,2.20
2019-06-20T14:48:56.940Z,2.55
2019-06-20T14:53:58.070Z,2.60
2019-06-20T14:58:55.432Z,2.55
2019-06-20T15:03:51.744Z,2.77
2019-06-20T15:08:51.017Z,3.10
2019-06-20T15:13:47.681Z,2.62
2019-06-20T15:18:50.147Z,2.95
2019-06-20T15:23:49.546Z,2.45
2019-06-20T15:28:46.236Z,3.27
2019-06-20T15:33:43.567Z,2.92
2019-06-20T15:38:39.583Z,3.65
2019-06-20T15:43:43.046Z,3.50
2019-06-20T15:48:40.928Z,2.80
2019-06-20T15:53:37.715Z,3.75
2019-06-20T15:58:35.719Z,3.33
2019-06-20T16:03:32.874Z,2.90
2019-06-20T16:08:58.809Z,3.10
2019-06-20T16:14:00.932Z,2.92
2019-06-20T16:19:08.121Z,3.12
2019-06-20T16:24:12.644Z,3.12
2019-06-20T16:29:10.721Z,2.75
2019-06-20T16:34:45.947Z,3.50
2019-06-20T16:39:43.385Z,3.42
2019-06-20T16:44:50.154Z,3.40
2019-06-20T16:50:00.707Z,2.72
2019-06-20T16:55:20.022Z,3.22
2019-06-20T17:00:18.387Z,3.13
2019-06-20T17:05:18.034Z,3.50
2019-06-20T17:10:15.772Z,3.23
2019-06-20T17:15:13.305Z,3.30
2019-06-20T17:20:11.294Z,3.87
2019-06-20T17:25:12.565Z,3.60
2019-06-20T17:37:02.982Z,4.45
2019-06-20T17:42:30.483Z,3.90
2019-06-20T17:47:28.219Z,3.85
2019-06-20T17:58:36.569Z,3.00
2019-06-20T18:03:39.634Z,3.20
2019-06-20T18:08:42.442Z,2.55
2019-06-20T18:13:46.647Z,2.90
2019-06-20T18:19:08.601Z,2.67
2019-06-20T18:24:23.889Z,2.52
2019-06-20T18:29:24.062Z,2.37
2019-06-20T18:34:30.483Z,2.53
2019-06-20T18:40:13.038Z,2.40
2019-06-20T18:45:11.006Z,2.70
2019-06-20T18:50:08.151Z,2.27
2019-06-20T18:55:04.880Z,2.33
2019-06-20T19:12:24.515Z,1.70
2019-06-20T19:17:20.333Z,1.93
2019-06-20T19:22:17.834Z,1.70
2019-06-20T19:27:13.767Z,1.62
2019-06-20T19:32:09.760Z,1.60
2019-06-20T19:37:05.683Z,2.20
2019-06-20T19:42:08.195Z,1.47
2019-06-20T19:47:21.047Z,1.60
2019-06-20T19:52:21.283Z,1.60
2019-06-20T19:57:14.395Z,1.30
2019-06-20T20:02:10.830Z,1.30
2019-06-20T20:07:07.366Z,1.70
2019-06-20T20:12:05.241Z,1.60
2019-06-20T20:17:01.392Z,1.40
2019-06-20T20:21:57.322Z,1.43
2019-06-20T20:26:53.299Z,1.50
2019-06-20T20:31:49.724Z,1.20
2019-06-20T20:36:46.205Z,1.17
2019-06-20T20:41:45.961Z,1.20
2019-06-20T20:46:43.561Z,1.20
2019-06-20T20:51:48.873Z,0.93
2019-06-20T20:56:44.889Z,1.27
2019-06-20T21:01:41.216Z,1.60
2019-06-20T21:06:40.553Z,1.40
2019-06-20T21:11:36.845Z,1.03
2019-06-20T21:16:34.156Z,1.07
2019-06-20T21:21:33.957Z,1.10
2019-06-20T21:26:48.352Z,1.10
2019-06-20T21:31:35.212Z,1.37
2019-06-20T21:36:49.950Z,1.20
2019-06-20T21:41:50.334Z,1.10
2019-06-20T21:46:54.207Z,1.53
2019-06-20T21:51:55.744Z,1.17
2019-06-20T21:57:02.919Z,1.50
2019-06-20T22:01:59.425Z,1.30
2019-06-20T22:07:25.164Z,1.30
2019-06-20T22:12:51.772Z,1.20
2019-06-20T22:17:47.946Z,1.27
2019-06-20T22:23:01.206Z,0.90
2019-06-20T22:28:09.155Z,1.00
2019-06-20T22:33:06.192Z,2.33
2019-06-20T22:38:04.721Z,1.30
2019-06-20T22:43:08.545Z,1.00
2019-06-20T22:48:03.872Z,1.07
2019-06-20T22:53:08.744Z,1.10
2019-06-20T22:58:05.145Z,0.90
2019-06-20T23:03:04.778Z,1.00
2019-06-20T23:08:01.747Z,1.37
2019-06-20T23:13:01.414Z,1.67
2019-06-20T23:18:02.281Z,1.20
2019-06-20T23:23:01.252Z,0.90
2019-06-20T23:28:00.188Z,0.90
2019-06-20T23:32:58.838Z,1.10
2019-06-20T23:37:56.234Z,1.10
2019-06-20T23:42:52.665Z,1.43
2019-06-20T23:47:50.559Z,0.97
2019-06-20T23:53:00.198Z,1.00
2019-06-20T23:57:56.199Z,0.90
